createdAt,value
2019-04-21T00:01:08.723Z,19.90
2019-04-21T00:03:40.770Z,19.80
2019-04-21T00:06:22.366Z,19.70
2019-04-21T00:08:56.444Z,19.60
2019-04-21T00:11:29.963Z,19.60
2019-04-21T00:13:51.488Z,19.40
2019-04-21T00:16:11.879Z,19.30
2019-04-21T00:18:53.774Z,19.30
2019-04-21T00:21:26.475Z,19.20
2019-04-21T00:24:01.299Z,19.20
2019-04-21T00:26:37.651Z,19.30
2019-04-21T00:29:09.385Z,19.50
2019-04-21T00:31:36.619Z,19.60
2019-04-21T00:33:51.353Z,19.60
2019-04-21T00:36:27.792Z,19.60
2019-04-21T00:39:24.400Z,19.60
2019-04-21T00:41:43.760Z,19.70
2019-04-21T00:44:11.462Z,19.80
2019-04-21T00:46:44.878Z,19.80
2019-04-21T00:49:17.005Z,19.60
2019-04-21T00:52:07.539Z,19.50
2019-04-21T00:54:37.399Z,19.40
2019-04-21T00:57:03.268Z,19.30
2019-04-21T00:59:36.950Z,19.30
2019-04-21T01:02:01.246Z,19.10
2019-04-21T01:04:39.535Z,19.10
2019-04-21T01:07:09.397Z,19.20
2019-04-21T01:09:34.221Z,19.10
2019-04-21T01:12:08.360Z,18.90
2019-04-21T01:14:40.726Z,18.90
2019-04-21T01:17:17.064Z,18.90
2019-04-21T01:19:37.341Z,18.80
2019-04-21T01:21:47.552Z,18.80
2019-04-21T01:24:21.959Z,18.80
2019-04-21T01:27:01.039Z,18.80
2019-04-21T01:29:41.567Z,18.90
2019-04-21T01:32:19.047Z,18.90
2019-04-21T01:34:45.574Z,18.90
2019-04-21T01:37:10.394Z,18.90
2019-04-21T01:39:58.475Z,18.90
2019-04-21T01:42:18.844Z,19.00
2019-04-21T01:44:46.150Z,18.90
2019-04-21T01:47:14.505Z,19.00
2019-04-21T01:49:41.770Z,19.00
2019-04-21T01:52:28.436Z,18.90
2019-04-21T01:55:06.439Z,18.90
2019-04-21T01:57:29.389Z,18.90
2019-04-21T01:59:58.656Z,18.70
2019-04-21T02:02:35.966Z,18.60
2019-04-21T02:05:10.464Z,18.50
2019-04-21T02:07:38.959Z,18.40
2019-04-21T02:10:11.494Z,18.30
2019-04-21T02:12:40.609Z,18.30
2019-04-21T02:15:14.281Z,18.20
2019-04-21T02:17:43.427Z,18.10
2019-04-21T02:20:02.761Z,18.00
2019-04-21T02:22:57.887Z,18.00
2019-04-21T02:25:18.225Z,17.90
2019-04-21T02:27:48.070Z,17.90
2019-04-21T02:30:21.768Z,17.90
2019-04-21T02:35:30.202Z,18.10
2019-04-21T02:38:11.922Z,18.20
2019-04-21T02:43:13.456Z,18.20
2019-04-21T02:45:30.227Z,18.30
2019-04-21T02:50:28.329Z,18.40
2019-04-21T02:53:00.852Z,18.40
2019-04-21T02:55:31.248Z,18.40
2019-04-21T02:58:06.178Z,18.40
2019-04-21T03:00:30.278Z,18.30
2019-04-21T03:03:07.002Z,18.10
2019-04-21T03:05:47.106Z,18.00
2019-04-21T03:10:53.522Z,17.90
2019-04-21T03:13:21.758Z,18.00
2019-04-21T03:15:53.231Z,18.00
2019-04-21T03:20:53.338Z,18.10
2019-04-21T03:28:22.261Z,18.20
2019-04-21T03:34:05.664Z,18.10
2019-04-21T03:36:13.346Z,17.80
2019-04-21T03:38:31.498Z,17.70
2019-04-21T03:40:54.980Z,17.50
2019-04-21T03:43:34.835Z,17.50
2019-04-21T03:48:27.061Z,17.30
2019-04-21T03:50:46.920Z,17.30
2019-04-21T03:53:27.766Z,17.20
2019-04-21T04:01:08.188Z,17.30
2019-04-21T04:04:05.810Z,17.30
2019-04-21T04:06:57.017Z,17.40
2019-04-21T04:09:33.187Z,17.20
2019-04-21T04:11:50.503Z,16.90
2019-04-21T04:16:59.322Z,16.70
2019-04-21T04:19:26.742Z,16.60
2019-04-21T04:22:00.782Z,16.50
2019-04-21T04:24:22.304Z,16.40
2019-04-21T04:26:49.070Z,16.40
2019-04-21T04:29:19.195Z,16.30
2019-04-21T04:31:43.193Z,16.20
2019-04-21T04:34:22.015Z,16.10
2019-04-21T04:42:12.780Z,16.00
2019-04-21T04:44:51.488Z,15.90
2019-04-21T04:47:12.302Z,15.80
2019-04-21T04:49:48.165Z,15.80
2019-04-21T05:02:29.944Z,15.80
2019-04-21T05:07:36.723Z,16.00
2019-04-21T05:09:59.149Z,15.90
2019-04-21T05:12:24.978Z,15.80
2019-04-21T05:15:06.411Z,15.80
2019-04-21T05:24:51.232Z,16.20
2019-04-21T05:27:35.725Z,16.10
2019-04-21T05:30:29.563Z,16.20
2019-04-21T05:33:01.380Z,16.40
2019-04-21T05:35:45.240Z,16.50
2019-04-21T05:38:30.394Z,16.50
2019-04-21T05:40:52.256Z,16.70
2019-04-21T05:43:32.462Z,16.60
2019-04-21T05:46:21.223Z,16.80
2019-04-21T05:48:52.184Z,16.90
2019-04-21T05:51:20.484Z,16.80
2019-04-21T05:53:56.125Z,17.00
2019-04-21T05:56:33.597Z,17.20
2019-04-21T05:58:57.957Z,17.40
2019-04-21T06:01:33.485Z,17.60
2019-04-21T06:04:07.260Z,17.80
2019-04-21T06:06:34.173Z,17.90
2019-04-21T06:08:59.392Z,18.10
2019-04-21T06:11:30.382Z,18.10
2019-04-21T06:14:01.487Z,18.00
2019-04-21T06:16:36.414Z,18.30
2019-04-21T06:19:29.373Z,18.30
2019-04-21T06:21:37.196Z,18.40
2019-04-21T06:24:03.846Z,18.50
2019-04-21T06:29:04.122Z,18.60
2019-04-21T06:34:15.183Z,18.70
2019-04-21T06:36:57.322Z,18.70
2019-04-21T06:39:24.196Z,18.70
2019-04-21T06:41:58.649Z,18.80
2019-04-21T06:44:27.855Z,18.80
2019-04-21T06:46:54.290Z,18.90
2019-04-21T06:49:20.429Z,18.90
2019-04-21T06:52:04.959Z,19.00
2019-04-21T06:54:29.175Z,19.20
2019-04-21T06:56:56.693Z,19.30
2019-04-21T06:59:29.874Z,19.30
2019-04-21T07:02:13.230Z,19.40
2019-04-21T07:04:36.513Z,19.50
2019-04-21T07:07:06.800Z,19.50
2019-04-21T07:09:37.874Z,19.60
2019-04-21T07:12:06.389Z,19.60
2019-04-21T07:14:52.741Z,19.60
2019-04-21T07:17:16.469Z,19.70
2019-04-21T07:19:46.731Z,19.60
2019-04-21T07:22:12.337Z,19.70
2019-04-21T07:24:43.373Z,19.80
2019-04-21T07:27:08.831Z,19.90
2019-04-21T07:29:42.909Z,19.80
2019-04-21T07:32:12.445Z,20.00
2019-04-21T07:34:38.493Z,20.10
2019-04-21T07:37:06.119Z,20.20
2019-04-21T07:39:40.723Z,20.20
2019-04-21T07:42:10.834Z,20.30
2019-04-21T07:44:35.019Z,20.30
2019-04-21T07:47:11.886Z,20.30
2019-04-21T07:49:59.043Z,20.30
2019-04-21T07:52:33.563Z,20.50
2019-04-21T07:55:06.239Z,20.60
2019-04-21T07:57:23.578Z,20.80
2019-04-21T08:00:24.411Z,20.70
2019-04-21T08:02:32.843Z,20.80
2019-04-21T08:05:07.817Z,20.80
2019-04-21T08:07:44.981Z,20.60
2019-04-21T08:09:58.462Z,20.60
2019-04-21T08:12:25.227Z,20.50
2019-04-21T08:15:14.314Z,20.60
2019-04-21T08:17:34.860Z,20.50
2019-04-21T08:19:59.110Z,20.60
2019-04-21T08:22:33.428Z,20.70
2019-04-21T08:25:05.790Z,20.80
2019-04-21T08:27:44.220Z,20.80
2019-04-21T08:30:04.973Z,21.00
2019-04-21T08:32:46.560Z,21.20
2019-04-21T08:35:33.846Z,21.30
2019-04-21T08:37:39.867Z,21.50
2019-04-21T08:40:09.620Z,21.60
2019-04-21T08:42:39.352Z,21.60
2019-04-21T08:45:08.803Z,21.60
2019-04-21T08:47:40.069Z,21.60
2019-04-21T08:50:09.616Z,21.60
2019-04-21T08:52:49.301Z,21.60
2019-04-21T08:55:21.734Z,21.60
2019-04-21T08:58:00.769Z,21.60
2019-04-21T09:00:33.518Z,21.60
2019-04-21T09:03:02.598Z,21.70
2019-04-21T09:05:29.841Z,21.80
2019-04-21T09:08:01.782Z,22.10
2019-04-21T09:10:33.416Z,22.30
2019-04-21T09:12:58.870Z,22.60
2019-04-21T09:15:30.956Z,22.70
2019-04-21T09:17:53.670Z,22.70
2019-04-21T09:20:40.192Z,22.80
2019-04-21T09:23:01.802Z,23.00
2019-04-21T09:28:01.281Z,23.20
2019-04-21T09:30:15.592Z,23.30
2019-04-21T09:32:44.612Z,23.20
2019-04-21T09:35:16.934Z,22.90
2019-04-21T09:37:57.045Z,22.80
2019-04-21T09:40:27.370Z,22.60
2019-04-21T09:43:01.072Z,22.90
2019-04-21T09:45:26.428Z,23.10
2019-04-21T09:48:09.545Z,23.10
2019-04-21T09:50:34.610Z,23.10
2019-04-21T09:53:12.160Z,22.90
2019-04-21T09:55:42.948Z,22.80
2019-04-21T09:58:15.117Z,22.80
2019-04-21T10:00:45.750Z,22.70
2019-04-21T10:03:09.904Z,22.60
2019-04-21T10:05:38.254Z,22.70
2019-04-21T10:08:08.166Z,22.90
2019-04-21T10:10:38.402Z,23.10
2019-04-21T10:13:07.934Z,23.30
2019-04-21T10:15:37.667Z,23.50
2019-04-21T10:18:12.971Z,23.60
2019-04-21T10:20:42.775Z,23.60
2019-04-21T10:23:11.992Z,23.70
2019-04-21T10:25:41.008Z,24.10
2019-04-21T10:28:10.928Z,24.50
2019-04-21T10:30:40.737Z,24.80
2019-04-21T10:33:10.419Z,25.00
2019-04-21T10:35:39.469Z,25.10
2019-04-21T10:38:19.806Z,25.20
2019-04-21T10:40:39.284Z,25.40
2019-04-21T10:43:11.610Z,25.50
2019-04-21T10:45:39.183Z,25.50
2019-04-21T10:48:08.437Z,25.40
2019-04-21T10:50:37.275Z,25.60
2019-04-21T10:53:14.468Z,25.70
2019-04-21T10:55:57.941Z,25.90
2019-04-21T10:58:18.326Z,26.20
2019-04-21T11:00:57.954Z,26.30
2019-04-21T11:03:31.274Z,26.30
2019-04-21T11:06:03.087Z,26.60
2019-04-21T11:08:37.854Z,26.70
2019-04-21T11:11:03.802Z,26.80
2019-04-21T11:13:32.959Z,26.90
2019-04-21T11:16:01.725Z,27.00
2019-04-21T11:18:31.787Z,27.10
2019-04-21T11:21:02.991Z,27.10
2019-04-21T11:23:33.090Z,27.30
2019-04-21T11:26:02.291Z,27.10
2019-04-21T11:28:31.415Z,27.10
2019-04-21T11:31:00.617Z,27.40
2019-04-21T11:33:31.305Z,27.50
2019-04-21T11:36:01.429Z,27.40
2019-04-21T11:38:54.274Z,27.40
2019-04-21T11:41:08.135Z,27.50
2019-04-21T11:43:37.153Z,27.40
2019-04-21T11:46:08.583Z,27.40
2019-04-21T11:48:37.635Z,27.20
2019-04-21T11:51:06.897Z,27.40
2019-04-21T11:53:37.055Z,27.40
2019-04-21T11:56:06.916Z,27.30
2019-04-21T11:58:37.504Z,27.30
2019-04-21T12:01:07.691Z,27.40
2019-04-21T12:03:37.755Z,27.50
2019-04-21T12:06:07.174Z,27.70
2019-04-21T12:08:41.334Z,27.80
2019-04-21T12:11:07.372Z,27.90
2019-04-21T12:13:36.261Z,28.00
2019-04-21T12:16:05.559Z,28.00
2019-04-21T12:18:34.702Z,27.60
2019-04-21T12:21:03.429Z,27.60
2019-04-21T12:23:34.373Z,27.60
2019-04-21T12:26:03.650Z,27.50
2019-04-21T12:28:34.194Z,27.40
2019-04-21T12:31:05.405Z,27.40
2019-04-21T12:33:42.468Z,27.70
2019-04-21T12:36:13.691Z,27.70
2019-04-21T12:38:57.663Z,27.90
2019-04-21T12:41:22.593Z,27.90
2019-04-21T12:43:52.747Z,28.00
2019-04-21T12:46:22.097Z,27.90
2019-04-21T12:48:51.628Z,28.00
2019-04-21T12:51:21.893Z,27.80
2019-04-21T12:53:51.889Z,27.70
2019-04-21T12:56:20.985Z,27.50
2019-04-21T12:58:51.317Z,27.40
2019-04-21T13:01:20.962Z,27.40
2019-04-21T13:03:50.122Z,27.50
2019-04-21T13:06:19.329Z,27.50
2019-04-21T13:08:56.851Z,27.40
2019-04-21T13:11:19.216Z,27.40
2019-04-21T13:13:48.326Z,27.40
2019-04-21T13:16:17.110Z,27.50
2019-04-21T13:18:47.103Z,27.30
2019-04-21T13:21:16.313Z,27.30
2019-04-21T13:23:45.240Z,27.40
2019-04-21T13:26:16.158Z,27.40
2019-04-21T13:28:44.782Z,27.30
2019-04-21T13:31:14.062Z,27.30
2019-04-21T13:33:43.987Z,27.20
2019-04-21T13:36:13.924Z,27.20
2019-04-21T13:39:36.098Z,27.10
2019-04-21T13:41:47.421Z,27.10
2019-04-21T13:44:17.809Z,27.10
2019-04-21T13:46:49.043Z,27.00
2019-04-21T13:49:19.231Z,26.90
2019-04-21T13:51:50.083Z,26.80
2019-04-21T13:54:19.894Z,26.80
2019-04-21T13:56:50.409Z,26.80
2019-04-21T13:59:20.118Z,26.80
2019-04-21T14:01:49.757Z,26.90
2019-04-21T14:04:19.856Z,26.90
2019-04-21T14:06:50.171Z,26.90
2019-04-21T14:09:19.948Z,26.80
2019-04-21T14:11:52.514Z,26.90
2019-04-21T14:14:23.907Z,26.80
2019-04-21T14:16:56.168Z,26.80
2019-04-21T14:19:25.584Z,26.70
2019-04-21T14:21:59.084Z,26.70
2019-04-21T14:24:28.798Z,26.50
2019-04-21T14:26:58.410Z,26.70
2019-04-21T14:29:27.840Z,26.60
2019-04-21T14:31:57.984Z,26.50
2019-04-21T14:34:28.140Z,26.40
2019-04-21T14:36:58.771Z,26.40
2019-04-21T14:39:30.298Z,26.50
2019-04-21T14:42:00.185Z,26.60
2019-04-21T14:44:29.426Z,26.80
2019-04-21T14:47:16.123Z,26.80
2019-04-21T14:49:47.069Z,26.70
2019-04-21T14:52:19.098Z,26.80
2019-04-21T14:54:51.779Z,26.90
2019-04-21T14:57:21.202Z,26.70
2019-04-21T14:59:51.309Z,26.40
2019-04-21T15:02:20.284Z,26.40
2019-04-21T15:04:49.689Z,26.30
2019-04-21T15:07:19.552Z,26.50
2019-04-21T15:10:01.643Z,26.60
2019-04-21T15:12:20.074Z,26.70
2019-04-21T15:14:49.878Z,27.10
2019-04-21T15:17:20.872Z,27.40
2019-04-21T15:19:58.644Z,27.80
2019-04-21T15:22:21.770Z,28.00
2019-04-21T15:24:50.473Z,28.10
2019-04-21T15:27:20.994Z,28.10
2019-04-21T15:29:51.075Z,28.30
2019-04-21T15:32:19.938Z,28.10
2019-04-21T15:34:52.044Z,28.00
2019-04-21T15:37:22.016Z,27.80
2019-04-21T15:39:51.187Z,27.70
2019-04-21T15:42:20.911Z,27.60
2019-04-21T15:44:50.527Z,27.50
2019-04-21T15:47:19.898Z,27.10
2019-04-21T15:50:02.784Z,27.10
2019-04-21T15:52:25.622Z,27.10
2019-04-21T15:54:56.881Z,27.00
2019-04-21T15:57:33.500Z,26.90
2019-04-21T16:00:22.526Z,27.00
2019-04-21T16:02:52.739Z,27.10
2019-04-21T16:05:22.514Z,26.90
2019-04-21T16:07:52.020Z,26.80
2019-04-21T16:10:34.638Z,26.80
2019-04-21T16:12:53.858Z,26.80
2019-04-21T16:15:23.133Z,27.10
2019-04-21T16:17:53.114Z,27.20
2019-04-21T16:20:23.867Z,27.30
2019-04-21T16:22:52.939Z,27.40
2019-04-21T16:25:23.181Z,27.50
2019-04-21T16:27:53.252Z,27.70
2019-04-21T16:30:22.086Z,27.60
2019-04-21T16:32:52.121Z,27.80
2019-04-21T16:35:23.458Z,27.60
2019-04-21T16:37:54.383Z,27.40
2019-04-21T16:40:23.474Z,27.50
2019-04-21T16:42:52.338Z,27.30
2019-04-21T16:45:21.283Z,27.20
2019-04-21T16:47:52.137Z,27.00
2019-04-21T16:50:21.512Z,26.90
2019-04-21T16:52:52.254Z,26.60
2019-04-21T16:55:23.191Z,26.50
2019-04-21T16:58:12.660Z,26.10
2019-04-21T17:00:49.145Z,26.00
2019-04-21T17:03:12.712Z,25.80
2019-04-21T17:05:42.619Z,25.60
2019-04-21T17:08:13.649Z,25.50
2019-04-21T17:10:56.935Z,25.50
2019-04-21T17:13:15.570Z,25.20
2019-04-21T17:15:59.729Z,25.20
2019-04-21T17:18:36.140Z,25.10
2019-04-21T17:20:50.668Z,25.00
2019-04-21T17:23:17.515Z,25.00
2019-04-21T17:25:47.393Z,25.00
2019-04-21T17:28:17.297Z,25.00
2019-04-21T17:30:48.483Z,24.90
2019-04-21T17:33:22.671Z,24.90
2019-04-21T17:35:49.187Z,24.90
2019-04-21T17:38:18.491Z,24.70
2019-04-21T17:40:47.668Z,24.60
2019-04-21T17:43:18.042Z,24.60
2019-04-21T17:45:46.819Z,24.60
2019-04-21T17:48:16.757Z,24.60
2019-04-21T17:50:47.676Z,24.60
2019-04-21T17:53:35.690Z,24.50
2019-04-21T17:56:20.662Z,24.50
2019-04-21T17:58:52.690Z,24.50
2019-04-21T18:01:20.924Z,24.40
2019-04-21T18:04:01.537Z,24.40
2019-04-21T18:06:21.002Z,24.30
2019-04-21T18:08:51.935Z,24.20
2019-04-21T18:11:18.055Z,24.10
2019-04-21T18:13:37.649Z,24.10
2019-04-21T18:16:19.199Z,24.00
2019-04-21T18:18:37.326Z,23.90
2019-04-21T18:21:08.849Z,23.80
2019-04-21T18:23:47.250Z,23.80
2019-04-21T18:26:23.270Z,23.80
2019-04-21T18:28:41.194Z,23.70
2019-04-21T18:31:12.313Z,23.70
2019-04-21T18:33:44.433Z,23.70
2019-04-21T18:36:21.345Z,23.70
2019-04-21T18:39:10.028Z,23.70
2019-04-21T18:42:04.899Z,23.60
2019-04-21T18:44:53.845Z,23.60
2019-04-21T18:47:33.036Z,23.60
2019-04-21T18:49:52.383Z,23.50
2019-04-21T18:52:45.250Z,23.50
2019-04-21T18:55:14.231Z,23.40
2019-04-21T18:57:37.527Z,23.40
2019-04-21T19:00:07.794Z,23.30
2019-04-21T19:02:36.825Z,23.30
2019-04-21T19:05:11.597Z,23.20
2019-04-21T19:08:01.625Z,23.20
2019-04-21T19:10:26.627Z,23.10
2019-04-21T19:15:19.955Z,23.00
2019-04-21T19:18:27.844Z,22.90
2019-04-21T19:20:31.098Z,22.80
2019-04-21T19:23:01.949Z,22.70
2019-04-21T19:25:25.811Z,22.60
2019-04-21T19:27:59.246Z,22.50
2019-04-21T19:30:36.428Z,22.40
2019-04-21T19:32:58.360Z,22.40
2019-04-21T19:35:15.058Z,22.20
2019-04-21T19:37:54.198Z,22.10
2019-04-21T19:40:30.699Z,22.00
2019-04-21T19:42:57.782Z,21.90
2019-04-21T19:45:35.500Z,21.80
2019-04-21T19:48:09.040Z,21.70
2019-04-21T19:50:40.540Z,21.70
2019-04-21T19:53:00.915Z,21.60
2019-04-21T19:55:20.248Z,21.60
2019-04-21T19:57:49.268Z,21.50
2019-04-21T20:00:19.295Z,21.50
2019-04-21T20:02:50.304Z,21.40
2019-04-21T20:05:28.234Z,21.40
2019-04-21T20:08:06.672Z,21.30
2019-04-21T20:10:39.787Z,21.30
2019-04-21T20:13:18.121Z,21.20
2019-04-21T20:15:41.959Z,21.20
2019-04-21T20:18:04.744Z,21.10
2019-04-21T20:20:22.819Z,21.10
2019-04-21T20:22:54.284Z,21.00
2019-04-21T20:25:27.289Z,20.90
2019-04-21T20:28:04.953Z,20.80
2019-04-21T20:30:45.020Z,20.80
2019-04-21T20:33:38.170Z,20.70
2019-04-21T20:35:53.430Z,20.70
2019-04-21T20:38:12.746Z,20.70
2019-04-21T20:40:39.973Z,20.70
2019-04-21T20:43:17.723Z,20.60
2019-04-21T20:45:52.323Z,20.60
2019-04-21T20:48:11.683Z,20.60
2019-04-21T20:50:41.789Z,20.60
2019-04-21T20:53:25.144Z,20.60
2019-04-21T20:55:48.947Z,20.50
2019-04-21T20:58:15.083Z,20.40
2019-04-21T21:01:16.809Z,20.40
2019-04-21T21:03:29.082Z,20.40
2019-04-21T21:05:53.216Z,20.30
2019-04-21T21:08:32.765Z,20.20
2019-04-21T21:10:55.195Z,20.20
2019-04-21T21:13:33.420Z,20.20
2019-04-21T21:16:11.458Z,20.20
2019-04-21T21:18:50.127Z,20.10
2019-04-21T21:21:03.345Z,20.10
2019-04-21T21:23:40.585Z,20.00
2019-04-21T21:26:04.767Z,20.00
2019-04-21T21:28:32.706Z,20.00
2019-04-21T21:31:07.476Z,19.90
2019-04-21T21:33:37.171Z,19.90
2019-04-21T21:36:06.488Z,19.90
2019-04-21T21:38:39.307Z,19.80
2019-04-21T21:40:59.995Z,19.80
2019-04-21T21:43:24.811Z,19.70
2019-04-21T21:45:58.070Z,19.70
2019-04-21T21:48:38.023Z,19.70
2019-04-21T21:51:06.016Z,19.60
2019-04-21T21:53:28.918Z,19.60
2019-04-21T21:55:56.403Z,19.60
2019-04-21T21:58:31.673Z,19.50
2019-04-21T22:01:00.534Z,19.50
2019-04-21T22:03:31.765Z,19.40
2019-04-21T22:06:03.530Z,19.40
2019-04-21T22:08:28.286Z,19.40
2019-04-21T22:10:57.434Z,19.40
2019-04-21T22:13:37.639Z,19.40
2019-04-21T22:16:04.755Z,19.40
2019-04-21T22:18:45.220Z,19.30
2019-04-21T22:21:09.942Z,19.30
2019-04-21T22:23:39.949Z,19.20
2019-04-21T22:26:01.034Z,19.20
2019-04-21T22:28:29.966Z,19.20
2019-04-21T22:30:58.796Z,19.10
2019-04-21T22:33:31.215Z,19.10
2019-04-21T22:36:05.933Z,19.00
2019-04-21T22:38:43.402Z,19.00
2019-04-21T22:41:10.647Z,19.00
2019-04-21T22:43:36.721Z,19.10
2019-04-21T22:46:03.215Z,19.10
2019-04-21T22:48:32.579Z,19.00
2019-04-21T22:51:02.975Z,18.90
2019-04-21T22:53:36.035Z,18.90
2019-04-21T22:56:10.921Z,18.80
2019-04-21T22:58:37.341Z,18.80
2019-04-21T23:01:04.219Z,18.80
2019-04-21T23:03:35.822Z,18.70
2019-04-21T23:06:12.201Z,18.70
2019-04-21T23:08:41.980Z,18.60
2019-04-21T23:11:12.200Z,18.60
2019-04-21T23:13:40.274Z,18.50
2019-04-21T23:16:13.944Z,18.50
2019-04-21T23:19:05.929Z,18.40
2019-04-21T23:21:30.518Z,18.40
2019-04-21T23:24:04.514Z,18.50
2019-04-21T23:26:33.082Z,18.40
2019-04-21T23:29:07.469Z,18.40
2019-04-21T23:31:40.674Z,18.30
2019-04-21T23:33:50.375Z,18.30
2019-04-21T23:36:23.081Z,18.30
2019-04-21T23:38:52.891Z,18.30
2019-04-21T23:41:21.488Z,18.30
2019-04-21T23:43:55.800Z,18.30
2019-04-21T23:46:26.765Z,18.20
2019-04-21T23:49:07.093Z,18.10
2019-04-21T23:51:35.364Z,18.10
2019-04-21T23:53:55.358Z,18.10
2019-04-21T23:56:32.934Z,18.10
2019-04-21T23:59:02.685Z,18.30
